sensor_id;sensor_type;location;lat;lon;timestamp;P1;durP1;ratioP1;P2;durP2;ratioP2
62894;SDS011;49204;44.916;37.998;2022-10-17T00:01:27;5.92;;;2.60;;
62894;SDS011;49204;44.916;37.998;2022-10-17T00:03:55;4.37;;;2.45;;
62894;SDS011;49204;44.916;37.998;2022-10-17T00:06:24;4.55;;;2.83;;
62894;SDS011;49204;44.916;37.998;2022-10-17T00:08:53;7.78;;;2.67;;
62894;SDS011;49204;44.916;37.998;2022-10-17T00:11:22;12.23;;;3.00;;
62894;SDS011;49204;44.916;37.998;2022-10-17T00:13:52;5.20;;;2.62;;
62894;SDS011;49204;44.916;37.998;2022-10-17T00:16:26;7.60;;;3.05;;
62894;SDS011;49204;44.916;37.998;2022-10-17T00:18:56;3.67;;;2.15;;
62894;SDS011;49204;44.916;37.998;2022-10-17T00:21:26;6.53;;;2.72;;
62894;SDS011;49204;44.916;37.998;2022-10-17T00:23:54;6.53;;;2.72;;
62894;SDS011;49204;44.916;37.998;2022-10-17T00:26:23;4.35;;;2.40;;
62894;SDS011;49204;44.916;37.998;2022-10-17T00:28:53;4.67;;;2.70;;
62894;SDS011;49204;44.916;37.998;2022-10-17T00:31:22;3.70;;;2.15;;
62894;SDS011;49204;44.916;37.998;2022-10-17T00:33:51;4.20;;;2.42;;
62894;SDS011;49204;44.916;37.998;2022-10-17T00:36:24;7.05;;;3.75;;
62894;SDS011;49204;44.916;37.998;2022-10-17T00:38:55;5.85;;;2.67;;
62894;SDS011;49204;44.916;37.998;2022-10-17T00:41:26;10.35;;;4.50;;
62894;SDS011;49204;44.916;37.998;2022-10-17T00:44:01;12.00;;;3.72;;
62894;SDS011;49204;44.916;37.998;2022-10-17T00:46:36;12.90;;;4.65;;
62894;SDS011;49204;44.916;37.998;2022-10-17T00:49:08;15.53;;;6.45;;
62894;SDS011;49204;44.916;37.998;2022-10-17T00:51:54;24.02;;;10.40;;
62894;SDS011;49204;44.916;37.998;2022-10-17T00:54:30;25.40;;;8.53;;
62894;SDS011;49204;44.916;37.998;2022-10-17T00:56:56;10.03;;;4.28;;
62894;SDS011;49204;44.916;37.998;2022-10-17T00:59:25;7.20;;;3.47;;
62894;SDS011;49204;44.916;37.998;2022-10-17T01:02:00;5.37;;;2.37;;
62894;SDS011;49204;44.916;37.998;2022-10-17T01:04:34;6.28;;;2.98;;
62894;SDS011;49204;44.916;37.998;2022-10-17T01:07:05;8.60;;;3.15;;
62894;SDS011;49204;44.916;37.998;2022-10-17T01:09:35;3.90;;;2.08;;
62894;SDS011;49204;44.916;37.998;2022-10-17T01:12:21;4.40;;;2.50;;
62894;SDS011;49204;44.916;37.998;2022-10-17T01:32:43;6.22;;;2.10;;
62894;SDS011;49204;44.916;37.998;2022-10-17T01:37:51;6.25;;;2.22;;
62894;SDS011;49204;44.916;37.998;2022-10-17T01:46:09;5.37;;;2.65;;
62894;SDS011;49204;44.916;37.998;2022-10-17T01:48:35;4.08;;;2.42;;
62894;SDS011;49204;44.916;37.998;2022-10-17T01:51:07;6.37;;;2.80;;
62894;SDS011;49204;44.916;37.998;2022-10-17T01:53:41;8.53;;;2.90;;
62894;SDS011;49204;44.916;37.998;2022-10-17T01:56:12;4.28;;;2.25;;
62894;SDS011;49204;44.916;37.998;2022-10-17T01:58:51;9.77;;;3.13;;
62894;SDS011;49204;44.916;37.998;2022-10-17T02:01:22;5.80;;;3.20;;
62894;SDS011;49204;44.916;37.998;2022-10-17T02:03:53;7.83;;;4.15;;
62894;SDS011;49204;44.916;37.998;2022-10-17T02:06:26;13.35;;;5.55;;
62894;SDS011;49204;44.916;37.998;2022-10-17T02:08:55;22.13;;;6.92;;
62894;SDS011;49204;44.916;37.998;2022-10-17T02:11:25;22.27;;;8.35;;
62894;SDS011;49204;44.916;37.998;2022-10-17T02:16:38;7.75;;;3.15;;
62894;SDS011;49204;44.916;37.998;2022-10-17T02:19:16;7.97;;;3.50;;
62894;SDS011;49204;44.916;37.998;2022-10-17T02:24:50;9.48;;;3.10;;
62894;SDS011;49204;44.916;37.998;2022-10-17T02:27:24;5.50;;;2.72;;
62894;SDS011;49204;44.916;37.998;2022-10-17T02:29:57;5.78;;;2.77;;
62894;SDS011;49204;44.916;37.998;2022-10-17T02:32:30;5.22;;;2.30;;
62894;SDS011;49204;44.916;37.998;2022-10-17T02:35:02;4.87;;;3.30;;
62894;SDS011;49204;44.916;37.998;2022-10-17T02:37:33;5.35;;;2.55;;
62894;SDS011;49204;44.916;37.998;2022-10-17T02:40:04;6.08;;;2.87;;
62894;SDS011;49204;44.916;37.998;2022-10-17T02:42:36;7.47;;;3.05;;
62894;SDS011;49204;44.916;37.998;2022-10-17T02:45:08;5.30;;;3.00;;
62894;SDS011;49204;44.916;37.998;2022-10-17T02:50:12;6.10;;;2.42;;
62894;SDS011;49204;44.916;37.998;2022-10-17T02:53:05;5.45;;;3.20;;
62894;SDS011;49204;44.916;37.998;2022-10-17T02:55:28;4.50;;;2.60;;
62894;SDS011;49204;44.916;37.998;2022-10-17T02:58:00;4.87;;;2.30;;
62894;SDS011;49204;44.916;37.998;2022-10-17T03:00:31;5.78;;;2.62;;
62894;SDS011;49204;44.916;37.998;2022-10-17T03:03:08;4.47;;;2.58;;
62894;SDS011;49204;44.916;37.998;2022-10-17T03:05:33;4.30;;;3.00;;
62894;SDS011;49204;44.916;37.998;2022-10-17T03:08:02;5.12;;;2.52;;
62894;SDS011;49204;44.916;37.998;2022-10-17T03:10:31;4.35;;;2.67;;
62894;SDS011;49204;44.916;37.998;2022-10-17T03:13:00;3.02;;;1.98;;
62894;SDS011;49204;44.916;37.998;2022-10-17T03:15:30;7.08;;;2.50;;
62894;SDS011;49204;44.916;37.998;2022-10-17T03:17:59;8.83;;;4.70;;
62894;SDS011;49204;44.916;37.998;2022-10-17T03:20:27;12.85;;;4.30;;
62894;SDS011;49204;44.916;37.998;2022-10-17T03:22:56;6.85;;;3.02;;
62894;SDS011;49204;44.916;37.998;2022-10-17T03:25:26;5.35;;;2.80;;
62894;SDS011;49204;44.916;37.998;2022-10-17T03:28:00;6.92;;;4.00;;
62894;SDS011;49204;44.916;37.998;2022-10-17T03:30:30;7.30;;;3.35;;
62894;SDS011;49204;44.916;37.998;2022-10-17T03:32:59;4.85;;;3.17;;
62894;SDS011;49204;44.916;37.998;2022-10-17T03:35:29;6.17;;;3.08;;
62894;SDS011;49204;44.916;37.998;2022-10-17T03:37:58;6.90;;;2.92;;
62894;SDS011;49204;44.916;37.998;2022-10-17T03:40:28;4.65;;;2.60;;
62894;SDS011;49204;44.916;37.998;2022-10-17T03:42:57;6.10;;;2.70;;
62894;SDS011;49204;44.916;37.998;2022-10-17T03:45:27;5.40;;;2.62;;
62894;SDS011;49204;44.916;37.998;2022-10-17T03:48:02;4.47;;;2.75;;
62894;SDS011;49204;44.916;37.998;2022-10-17T03:50:26;5.40;;;3.00;;
62894;SDS011;49204;44.916;37.998;2022-10-17T03:52:56;3.77;;;2.62;;
62894;SDS011;49204;44.916;37.998;2022-10-17T03:55:24;5.78;;;2.98;;
62894;SDS011;49204;44.916;37.998;2022-10-17T03:57:53;5.22;;;2.45;;
62894;SDS011;49204;44.916;37.998;2022-10-17T04:00:22;4.12;;;2.65;;
62894;SDS011;49204;44.916;37.998;2022-10-17T04:02:53;14.98;;;7.10;;
62894;SDS011;49204;44.916;37.998;2022-10-17T04:05:22;6.45;;;3.52;;
62894;SDS011;49204;44.916;37.998;2022-10-17T04:07:52;8.55;;;3.72;;
62894;SDS011;49204;44.916;37.998;2022-10-17T04:10:22;9.50;;;4.45;;
62894;SDS011;49204;44.916;37.998;2022-10-17T04:12:51;10.08;;;4.15;;
62894;SDS011;49204;44.916;37.998;2022-10-17T04:15:21;5.67;;;3.10;;
62894;SDS011;49204;44.916;37.998;2022-10-17T04:17:50;13.28;;;3.20;;
62894;SDS011;49204;44.916;37.998;2022-10-17T04:20:39;10.25;;;4.50;;
62894;SDS011;49204;44.916;37.998;2022-10-17T04:23:08;10.35;;;3.85;;
62894;SDS011;49204;44.916;37.998;2022-10-17T04:25:37;7.50;;;3.47;;
62894;SDS011;49204;44.916;37.998;2022-10-17T04:28:06;7.10;;;2.65;;
62894;SDS011;49204;44.916;37.998;2022-10-17T04:30:35;5.55;;;2.77;;
62894;SDS011;49204;44.916;37.998;2022-10-17T04:33:05;4.87;;;2.92;;
62894;SDS011;49204;44.916;37.998;2022-10-17T04:35:34;7.00;;;3.02;;
62894;SDS011;49204;44.916;37.998;2022-10-17T04:38:05;11.55;;;3.80;;
62894;SDS011;49204;44.916;37.998;2022-10-17T04:40:35;21.62;;;8.48;;
62894;SDS011;49204;44.916;37.998;2022-10-17T04:43:05;20.20;;;9.35;;
62894;SDS011;49204;44.916;37.998;2022-10-17T04:45:35;23.95;;;10.45;;
62894;SDS011;49204;44.916;37.998;2022-10-17T04:48:04;22.67;;;8.95;;
62894;SDS011;49204;44.916;37.998;2022-10-17T04:50:33;24.80;;;8.95;;
62894;SDS011;49204;44.916;37.998;2022-10-17T04:53:18;28.60;;;11.33;;
62894;SDS011;49204;44.916;37.998;2022-10-17T04:55:47;29.02;;;10.95;;
62894;SDS011;49204;44.916;37.998;2022-10-17T04:58:17;24.18;;;10.20;;
62894;SDS011;49204;44.916;37.998;2022-10-17T05:00:48;19.62;;;8.65;;
62894;SDS011;49204;44.916;37.998;2022-10-17T05:03:21;8.00;;;4.87;;
62894;SDS011;49204;44.916;37.998;2022-10-17T05:05:50;6.70;;;3.58;;
62894;SDS011;49204;44.916;37.998;2022-10-17T05:08:19;6.00;;;2.90;;
62894;SDS011;49204;44.916;37.998;2022-10-17T05:10:49;5.03;;;2.90;;
62894;SDS011;49204;44.916;37.998;2022-10-17T05:13:18;8.33;;;4.42;;
62894;SDS011;49204;44.916;37.998;2022-10-17T05:15:47;6.15;;;3.02;;
62894;SDS011;49204;44.916;37.998;2022-10-17T05:18:15;5.40;;;3.12;;
62894;SDS011;49204;44.916;37.998;2022-10-17T05:20:45;9.95;;;4.37;;
62894;SDS011;49204;44.916;37.998;2022-10-17T05:23:14;5.30;;;3.08;;
62894;SDS011;49204;44.916;37.998;2022-10-17T05:25:43;4.00;;;2.40;;
62894;SDS011;49204;44.916;37.998;2022-10-17T05:28:13;6.75;;;2.52;;
62894;SDS011;49204;44.916;37.998;2022-10-17T05:30:42;5.60;;;2.10;;
62894;SDS011;49204;44.916;37.998;2022-10-17T05:33:11;6.28;;;2.25;;
62894;SDS011;49204;44.916;37.998;2022-10-17T05:35:40;5.55;;;2.02;;
62894;SDS011;49204;44.916;37.998;2022-10-17T05:38:09;5.40;;;1.72;;
62894;SDS011;49204;44.916;37.998;2022-10-17T05:40:40;6.17;;;2.98;;
62894;SDS011;49204;44.916;37.998;2022-10-17T05:43:09;6.72;;;2.42;;
62894;SDS011;49204;44.916;37.998;2022-10-17T05:45:38;5.55;;;2.30;;
62894;SDS011;49204;44.916;37.998;2022-10-17T05:48:09;3.08;;;1.80;;
62894;SDS011;49204;44.916;37.998;2022-10-17T05:50:38;13.35;;;5.58;;
62894;SDS011;49204;44.916;37.998;2022-10-17T05:53:09;16.52;;;8.33;;
62894;SDS011;49204;44.916;37.998;2022-10-17T05:55:39;5.00;;;2.37;;
62894;SDS011;49204;44.916;37.998;2022-10-17T05:58:08;4.78;;;2.55;;
62894;SDS011;49204;44.916;37.998;2022-10-17T06:00:39;5.83;;;2.55;;
62894;SDS011;49204;44.916;37.998;2022-10-17T06:03:08;3.67;;;2.05;;
62894;SDS011;49204;44.916;37.998;2022-10-17T06:05:38;4.75;;;2.85;;
62894;SDS011;49204;44.916;37.998;2022-10-17T06:08:08;4.05;;;1.60;;
62894;SDS011;49204;44.916;37.998;2022-10-17T06:10:37;3.95;;;2.22;;
62894;SDS011;49204;44.916;37.998;2022-10-17T06:13:07;2.85;;;1.45;;
62894;SDS011;49204;44.916;37.998;2022-10-17T06:15:36;3.77;;;2.30;;
62894;SDS011;49204;44.916;37.998;2022-10-17T06:18:07;10.70;;;2.47;;
62894;SDS011;49204;44.916;37.998;2022-10-17T06:20:35;4.90;;;2.42;;
62894;SDS011;49204;44.916;37.998;2022-10-17T06:23:05;6.85;;;3.25;;
62894;SDS011;49204;44.916;37.998;2022-10-17T06:25:44;4.97;;;2.42;;
62894;SDS011;49204;44.916;37.998;2022-10-17T06:28:14;6.17;;;2.83;;
62894;SDS011;49204;44.916;37.998;2022-10-17T06:30:43;4.95;;;2.95;;
62894;SDS011;49204;44.916;37.998;2022-10-17T06:33:12;5.87;;;2.40;;
62894;SDS011;49204;44.916;37.998;2022-10-17T06:35:42;3.92;;;2.35;;
62894;SDS011;49204;44.916;37.998;2022-10-17T06:38:13;8.40;;;4.00;;
62894;SDS011;49204;44.916;37.998;2022-10-17T06:40:45;10.55;;;3.60;;
62894;SDS011;49204;44.916;37.998;2022-10-17T06:43:15;10.30;;;4.35;;
62894;SDS011;49204;44.916;37.998;2022-10-17T06:45:49;14.00;;;5.62;;
62894;SDS011;49204;44.916;37.998;2022-10-17T06:48:19;13.15;;;3.85;;
62894;SDS011;49204;44.916;37.998;2022-10-17T06:53:25;7.80;;;2.77;;
62894;SDS011;49204;44.916;37.998;2022-10-17T06:56:06;6.70;;;3.15;;
62894;SDS011;49204;44.916;37.998;2022-10-17T06:58:46;5.12;;;2.25;;
62894;SDS011;49204;44.916;37.998;2022-10-17T07:01:27;4.60;;;2.72;;
62894;SDS011;49204;44.916;37.998;2022-10-17T07:04:22;5.55;;;2.42;;
62894;SDS011;49204;44.916;37.998;2022-10-17T07:06:52;11.70;;;3.45;;
62894;SDS011;49204;44.916;37.998;2022-10-17T07:09:26;68.52;;;27.70;;
62894;SDS011;49204;44.916;37.998;2022-10-17T07:11:56;79.82;;;29.82;;
62894;SDS011;49204;44.916;37.998;2022-10-17T07:14:25;40.38;;;15.28;;
62894;SDS011;49204;44.916;37.998;2022-10-17T07:16:55;21.48;;;9.48;;
62894;SDS011;49204;44.916;37.998;2022-10-17T07:19:26;15.38;;;6.50;;
62894;SDS011;49204;44.916;37.998;2022-10-17T07:21:56;11.18;;;4.83;;
62894;SDS011;49204;44.916;37.998;2022-10-17T07:24:26;8.20;;;3.85;;
62894;SDS011;49204;44.916;37.998;2022-10-17T07:26:56;17.00;;;5.28;;
62894;SDS011;49204;44.916;37.998;2022-10-17T07:29:29;11.12;;;5.05;;
62894;SDS011;49204;44.916;37.998;2022-10-17T07:31:59;11.10;;;5.22;;
62894;SDS011;49204;44.916;37.998;2022-10-17T07:34:30;13.48;;;5.55;;
62894;SDS011;49204;44.916;37.998;2022-10-17T07:37:00;7.75;;;3.25;;
62894;SDS011;49204;44.916;37.998;2022-10-17T07:39:29;6.78;;;2.52;;
62894;SDS011;49204;44.916;37.998;2022-10-17T07:41:58;5.28;;;2.08;;
62894;SDS011;49204;44.916;37.998;2022-10-17T07:44:28;2.90;;;1.70;;
62894;SDS011;49204;44.916;37.998;2022-10-17T07:46:57;3.90;;;2.20;;
62894;SDS011;49204;44.916;37.998;2022-10-17T07:49:26;11.78;;;1.85;;
62894;SDS011;49204;44.916;37.998;2022-10-17T07:52:01;7.40;;;1.47;;
62894;SDS011;49204;44.916;37.998;2022-10-17T07:54:30;1.80;;;1.37;;
62894;SDS011;49204;44.916;37.998;2022-10-17T07:56:59;5.12;;;2.30;;
62894;SDS011;49204;44.916;37.998;2022-10-17T07:59:28;5.50;;;2.17;;
62894;SDS011;49204;44.916;37.998;2022-10-17T08:01:57;3.70;;;2.12;;
62894;SDS011;49204;44.916;37.998;2022-10-17T08:04:26;4.42;;;2.60;;
62894;SDS011;49204;44.916;37.998;2022-10-17T08:06:55;4.97;;;2.83;;
62894;SDS011;49204;44.916;37.998;2022-10-17T08:09:24;7.83;;;3.60;;
62894;SDS011;49204;44.916;37.998;2022-10-17T08:11:53;7.17;;;3.58;;
62894;SDS011;49204;44.916;37.998;2022-10-17T08:14:22;16.17;;;3.83;;
62894;SDS011;49204;44.916;37.998;2022-10-17T08:16:52;9.70;;;4.58;;
62894;SDS011;49204;44.916;37.998;2022-10-17T08:19:21;12.45;;;5.62;;
62894;SDS011;49204;44.916;37.998;2022-10-17T08:21:50;8.00;;;3.42;;
62894;SDS011;49204;44.916;37.998;2022-10-17T08:24:20;7.35;;;3.92;;
62894;SDS011;49204;44.916;37.998;2022-10-17T08:26:49;11.15;;;3.17;;
62894;SDS011;49204;44.916;37.998;2022-10-17T08:29:19;9.05;;;2.80;;
62894;SDS011;49204;44.916;37.998;2022-10-17T08:31:47;7.55;;;2.83;;
62894;SDS011;49204;44.916;37.998;2022-10-17T08:34:17;14.65;;;7.60;;
62894;SDS011;49204;44.916;37.998;2022-10-17T08:36:46;6.30;;;2.65;;
62894;SDS011;49204;44.916;37.998;2022-10-17T08:39:15;8.15;;;3.27;;
62894;SDS011;49204;44.916;37.998;2022-10-17T08:41:58;6.25;;;3.20;;
62894;SDS011;49204;44.916;37.998;2022-10-17T08:47:32;5.05;;;2.62;;
62894;SDS011;49204;44.916;37.998;2022-10-17T08:50:00;5.00;;;2.42;;
62894;SDS011;49204;44.916;37.998;2022-10-17T08:52:36;5.83;;;2.77;;
62894;SDS011;49204;44.916;37.998;2022-10-17T08:55:28;3.00;;;1.55;;
62894;SDS011;49204;44.916;37.998;2022-10-17T08:58:15;6.47;;;2.15;;
62894;SDS011;49204;44.916;37.998;2022-10-17T09:06:20;5.62;;;2.58;;
62894;SDS011;49204;44.916;37.998;2022-10-17T09:09:38;5.12;;;2.67;;
62894;SDS011;49204;44.916;37.998;2022-10-17T09:17:14;9.78;;;3.33;;
62894;SDS011;49204;44.916;37.998;2022-10-17T09:25:24;5.30;;;2.67;;
62894;SDS011;49204;44.916;37.998;2022-10-17T09:33:37;14.55;;;6.33;;
62894;SDS011;49204;44.916;37.998;2022-10-17T09:36:16;9.55;;;4.70;;
62894;SDS011;49204;44.916;37.998;2022-10-17T09:38:58;10.78;;;3.60;;
62894;SDS011;49204;44.916;37.998;2022-10-17T09:43:55;10.75;;;5.33;;
62894;SDS011;49204;44.916;37.998;2022-10-17T09:46:31;15.68;;;5.40;;
62894;SDS011;49204;44.916;37.998;2022-10-17T09:51:38;4.30;;;2.87;;
62894;SDS011;49204;44.916;37.998;2022-10-17T09:54:19;13.83;;;4.60;;
62894;SDS011;49204;44.916;37.998;2022-10-17T09:57:01;12.10;;;5.00;;
62894;SDS011;49204;44.916;37.998;2022-10-17T09:59:33;7.17;;;3.85;;
62894;SDS011;49204;44.916;37.998;2022-10-17T10:02:08;12.68;;;4.08;;
62894;SDS011;49204;44.916;37.998;2022-10-17T10:04:58;14.80;;;5.87;;
62894;SDS011;49204;44.916;37.998;2022-10-17T10:07:29;16.50;;;5.97;;
62894;SDS011;49204;44.916;37.998;2022-10-17T10:10:06;5.67;;;2.98;;
62894;SDS011;49204;44.916;37.998;2022-10-17T10:15:43;6.92;;;4.25;;
62894;SDS011;49204;44.916;37.998;2022-10-17T10:21:18;8.83;;;4.28;;
62894;SDS011;49204;44.916;37.998;2022-10-17T10:23:36;18.98;;;8.63;;
62894;SDS011;49204;44.916;37.998;2022-10-17T10:26:22;19.48;;;7.25;;
62894;SDS011;49204;44.916;37.998;2022-10-17T10:28:54;8.08;;;4.50;;
62894;SDS011;49204;44.916;37.998;2022-10-17T10:31:34;11.53;;;4.62;;
62894;SDS011;49204;44.916;37.998;2022-10-17T10:34:15;5.85;;;2.83;;
62894;SDS011;49204;44.916;37.998;2022-10-17T10:36:59;11.43;;;5.00;;
62894;SDS011;49204;44.916;37.998;2022-10-17T10:39:33;20.85;;;4.00;;
62894;SDS011;49204;44.916;37.998;2022-10-17T10:42:20;7.08;;;2.92;;
62894;SDS011;49204;44.916;37.998;2022-10-17T10:44:50;6.22;;;3.77;;
62894;SDS011;49204;44.916;37.998;2022-10-17T10:47:22;8.65;;;4.22;;
62894;SDS011;49204;44.916;37.998;2022-10-17T10:50:41;9.78;;;4.00;;
62894;SDS011;49204;44.916;37.998;2022-10-17T10:52:44;8.70;;;4.15;;
62894;SDS011;49204;44.916;37.998;2022-10-17T10:58:08;7.78;;;3.30;;
62894;SDS011;49204;44.916;37.998;2022-10-17T11:00:42;15.10;;;5.28;;
62894;SDS011;49204;44.916;37.998;2022-10-17T11:03:14;11.30;;;3.70;;
62894;SDS011;49204;44.916;37.998;2022-10-17T11:05:58;8.50;;;3.42;;
62894;SDS011;49204;44.916;37.998;2022-10-17T11:11:11;9.73;;;4.35;;
62894;SDS011;49204;44.916;37.998;2022-10-17T11:13:51;4.70;;;3.15;;
62894;SDS011;49204;44.916;37.998;2022-10-17T11:16:43;10.98;;;4.25;;
62894;SDS011;49204;44.916;37.998;2022-10-17T11:19:14;5.08;;;2.60;;
62894;SDS011;49204;44.916;37.998;2022-10-17T11:27:11;16.07;;;5.78;;
62894;SDS011;49204;44.916;37.998;2022-10-17T11:29:40;14.95;;;5.17;;
62894;SDS011;49204;44.916;37.998;2022-10-17T11:32:17;8.28;;;3.65;;
62894;SDS011;49204;44.916;37.998;2022-10-17T11:35:03;6.10;;;2.60;;
62894;SDS011;49204;44.916;37.998;2022-10-17T11:37:36;5.90;;;3.08;;
62894;SDS011;49204;44.916;37.998;2022-10-17T11:40:09;12.40;;;4.47;;
62894;SDS011;49204;44.916;37.998;2022-10-17T11:42:54;15.10;;;5.15;;
62894;SDS011;49204;44.916;37.998;2022-10-17T11:45:34;14.33;;;6.00;;
62894;SDS011;49204;44.916;37.998;2022-10-17T11:48:06;15.32;;;5.33;;
62894;SDS011;49204;44.916;37.998;2022-10-17T11:50:36;11.10;;;5.22;;
62894;SDS011;49204;44.916;37.998;2022-10-17T11:53:21;5.80;;;3.60;;
62894;SDS011;49204;44.916;37.998;2022-10-17T11:55:51;13.62;;;4.78;;
62894;SDS011;49204;44.916;37.998;2022-10-17T11:58:34;14.53;;;6.22;;
62894;SDS011;49204;44.916;37.998;2022-10-17T12:12:06;7.62;;;2.95;;
62894;SDS011;49204;44.916;37.998;2022-10-17T12:14:36;4.97;;;2.70;;
62894;SDS011;49204;44.916;37.998;2022-10-17T12:22:54;5.37;;;2.40;;
62894;SDS011;49204;44.916;37.998;2022-10-17T12:25:34;7.10;;;2.60;;
62894;SDS011;49204;44.916;37.998;2022-10-17T12:30:50;4.62;;;2.52;;
62894;SDS011;49204;44.916;37.998;2022-10-17T12:33:21;6.00;;;3.33;;
62894;SDS011;49204;44.916;37.998;2022-10-17T12:38:50;8.70;;;3.60;;
62894;SDS011;49204;44.916;37.998;2022-10-17T12:52:20;7.72;;;3.50;;
62894;SDS011;49204;44.916;37.998;2022-10-17T13:00:33;8.93;;;4.30;;
62894;SDS011;49204;44.916;37.998;2022-10-17T13:03:11;12.93;;;4.17;;
62894;SDS011;49204;44.916;37.998;2022-10-17T13:05:42;7.03;;;3.87;;
62894;SDS011;49204;44.916;37.998;2022-10-17T13:08:31;12.88;;;4.97;;
62894;SDS011;49204;44.916;37.998;2022-10-17T13:11:02;13.28;;;4.92;;
62894;SDS011;49204;44.916;37.998;2022-10-17T13:13:37;20.37;;;6.55;;
62894;SDS011;49204;44.916;37.998;2022-10-17T13:16:27;18.90;;;6.25;;
62894;SDS011;49204;44.916;37.998;2022-10-17T13:19:01;7.85;;;3.35;;
62894;SDS011;49204;44.916;37.998;2022-10-17T13:21:32;11.45;;;5.33;;
62894;SDS011;49204;44.916;37.998;2022-10-17T13:24:13;24.35;;;10.03;;
62894;SDS011;49204;44.916;37.998;2022-10-17T13:26:47;33.65;;;10.80;;
62894;SDS011;49204;44.916;37.998;2022-10-17T13:29:16;10.58;;;4.75;;
62894;SDS011;49204;44.916;37.998;2022-10-17T13:31:54;9.78;;;4.75;;
62894;SDS011;49204;44.916;37.998;2022-10-17T13:34:26;10.35;;;5.28;;
62894;SDS011;49204;44.916;37.998;2022-10-17T13:36:56;28.92;;;10.72;;
62894;SDS011;49204;44.916;37.998;2022-10-17T13:39:27;19.15;;;6.90;;
62894;SDS011;49204;44.916;37.998;2022-10-17T13:41:58;17.55;;;7.62;;
62894;SDS011;49204;44.916;37.998;2022-10-17T13:44:32;22.60;;;8.55;;
62894;SDS011;49204;44.916;37.998;2022-10-17T13:46:59;16.70;;;7.30;;
62894;SDS011;49204;44.916;37.998;2022-10-17T13:49:40;14.05;;;5.12;;
62894;SDS011;49204;44.916;37.998;2022-10-17T13:52:15;13.70;;;5.78;;
62894;SDS011;49204;44.916;37.998;2022-10-17T13:54:46;21.27;;;6.75;;
62894;SDS011;49204;44.916;37.998;2022-10-17T13:57:22;8.85;;;4.45;;
62894;SDS011;49204;44.916;37.998;2022-10-17T13:59:56;8.00;;;4.85;;
62894;SDS011;49204;44.916;37.998;2022-10-17T14:02:26;9.00;;;3.83;;
62894;SDS011;49204;44.916;37.998;2022-10-17T14:05:08;10.60;;;4.33;;
62894;SDS011;49204;44.916;37.998;2022-10-17T14:10:22;19.25;;;8.13;;
62894;SDS011;49204;44.916;37.998;2022-10-17T14:12:53;10.00;;;4.92;;
62894;SDS011;49204;44.916;37.998;2022-10-17T14:15:24;11.25;;;6.40;;
62894;SDS011;49204;44.916;37.998;2022-10-17T14:18:01;14.63;;;7.72;;
62894;SDS011;49204;44.916;37.998;2022-10-17T14:20:31;17.82;;;8.40;;
62894;SDS011;49204;44.916;37.998;2022-10-17T14:23:01;16.07;;;7.35;;
62894;SDS011;49204;44.916;37.998;2022-10-17T14:25:31;14.18;;;7.12;;
62894;SDS011;49204;44.916;37.998;2022-10-17T14:28:12;11.28;;;5.72;;
62894;SDS011;49204;44.916;37.998;2022-10-17T14:30:44;9.98;;;3.83;;
62894;SDS011;49204;44.916;37.998;2022-10-17T14:33:22;8.63;;;3.90;;
62894;SDS011;49204;44.916;37.998;2022-10-17T14:35:50;8.58;;;4.05;;
62894;SDS011;49204;44.916;37.998;2022-10-17T14:38:20;12.93;;;3.85;;
62894;SDS011;49204;44.916;37.998;2022-10-17T14:40:57;11.97;;;3.77;;
62894;SDS011;49204;44.916;37.998;2022-10-17T14:43:22;12.95;;;3.22;;
62894;SDS011;49204;44.916;37.998;2022-10-17T14:45:52;11.73;;;4.17;;
62894;SDS011;49204;44.916;37.998;2022-10-17T14:48:27;15.32;;;4.70;;
62894;SDS011;49204;44.916;37.998;2022-10-17T14:51:06;14.70;;;4.37;;
62894;SDS011;49204;44.916;37.998;2022-10-17T14:53:37;12.85;;;4.20;;
62894;SDS011;49204;44.916;37.998;2022-10-17T14:56:21;16.70;;;4.75;;
62894;SDS011;49204;44.916;37.998;2022-10-17T15:01:20;14.53;;;3.98;;
62894;SDS011;49204;44.916;37.998;2022-10-17T15:03:49;16.45;;;4.10;;
62894;SDS011;49204;44.916;37.998;2022-10-17T15:06:19;14.03;;;5.08;;
62894;SDS011;49204;44.916;37.998;2022-10-17T15:08:50;11.35;;;3.45;;
62894;SDS011;49204;44.916;37.998;2022-10-17T15:11:20;19.45;;;4.33;;
62894;SDS011;49204;44.916;37.998;2022-10-17T15:13:49;13.72;;;3.72;;
62894;SDS011;49204;44.916;37.998;2022-10-17T15:16:23;16.75;;;4.42;;
62894;SDS011;49204;44.916;37.998;2022-10-17T15:18:53;17.02;;;4.58;;
62894;SDS011;49204;44.916;37.998;2022-10-17T15:21:23;19.52;;;5.12;;
62894;SDS011;49204;44.916;37.998;2022-10-17T15:23:52;21.40;;;4.87;;
62894;SDS011;49204;44.916;37.998;2022-10-17T15:26:28;24.35;;;6.30;;
62894;SDS011;49204;44.916;37.998;2022-10-17T15:28:53;16.37;;;4.05;;
62894;SDS011;49204;44.916;37.998;2022-10-17T15:31:22;9.68;;;3.47;;
62894;SDS011;49204;44.916;37.998;2022-10-17T15:33:52;8.63;;;2.83;;
62894;SDS011;49204;44.916;37.998;2022-10-17T15:38:57;17.37;;;6.85;;
62894;SDS011;49204;44.916;37.998;2022-10-17T15:41:29;15.08;;;5.15;;
62894;SDS011;49204;44.916;37.998;2022-10-17T15:43:58;15.43;;;5.05;;
62894;SDS011;49204;44.916;37.998;2022-10-17T15:46:28;17.12;;;5.00;;
62894;SDS011;49204;44.916;37.998;2022-10-17T15:49:09;21.20;;;5.08;;
62894;SDS011;49204;44.916;37.998;2022-10-17T15:51:33;18.12;;;4.85;;
62894;SDS011;49204;44.916;37.998;2022-10-17T15:54:02;18.23;;;6.50;;
62894;SDS011;49204;44.916;37.998;2022-10-17T15:56:36;21.35;;;5.92;;
62894;SDS011;49204;44.916;37.998;2022-10-17T15:59:13;18.55;;;5.90;;
62894;SDS011;49204;44.916;37.998;2022-10-17T16:01:44;13.10;;;5.28;;
62894;SDS011;49204;44.916;37.998;2022-10-17T16:04:14;16.90;;;6.30;;
62894;SDS011;49204;44.916;37.998;2022-10-17T16:06:44;14.65;;;6.10;;
62894;SDS011;49204;44.916;37.998;2022-10-17T16:09:12;21.97;;;7.58;;
62894;SDS011;49204;44.916;37.998;2022-10-17T16:11:41;15.00;;;6.75;;
62894;SDS011;49204;44.916;37.998;2022-10-17T16:14:13;13.75;;;6.70;;
62894;SDS011;49204;44.916;37.998;2022-10-17T16:16:43;20.02;;;8.08;;
62894;SDS011;49204;44.916;37.998;2022-10-17T16:19:12;17.00;;;7.97;;
62894;SDS011;49204;44.916;37.998;2022-10-17T16:21:41;15.53;;;6.00;;
62894;SDS011;49204;44.916;37.998;2022-10-17T16:24:10;11.75;;;5.75;;
62894;SDS011;49204;44.916;37.998;2022-10-17T16:26:39;15.00;;;5.85;;
62894;SDS011;49204;44.916;37.998;2022-10-17T16:29:08;16.97;;;6.35;;
62894;SDS011;49204;44.916;37.998;2022-10-17T16:31:39;25.23;;;8.83;;
62894;SDS011;49204;44.916;37.998;2022-10-17T16:34:09;26.35;;;10.13;;
62894;SDS011;49204;44.916;37.998;2022-10-17T16:36:41;25.70;;;10.32;;
62894;SDS011;49204;44.916;37.998;2022-10-17T16:39:10;25.27;;;11.20;;
62894;SDS011;49204;44.916;37.998;2022-10-17T16:41:39;17.02;;;6.87;;
62894;SDS011;49204;44.916;37.998;2022-10-17T16:44:10;19.50;;;7.25;;
62894;SDS011;49204;44.916;37.998;2022-10-17T16:46:40;30.10;;;11.75;;
62894;SDS011;49204;44.916;37.998;2022-10-17T16:49:08;14.33;;;5.95;;
62894;SDS011;49204;44.916;37.998;2022-10-17T16:51:43;8.73;;;4.22;;
62894;SDS011;49204;44.916;37.998;2022-10-17T16:54:08;7.37;;;3.85;;
62894;SDS011;49204;44.916;37.998;2022-10-17T16:56:37;14.63;;;5.62;;
62894;SDS011;49204;44.916;37.998;2022-10-17T16:59:08;16.62;;;5.37;;
62894;SDS011;49204;44.916;37.998;2022-10-17T17:01:39;15.60;;;5.05;;
62894;SDS011;49204;44.916;37.998;2022-10-17T17:04:08;17.27;;;5.50;;
62894;SDS011;49204;44.916;37.998;2022-10-17T17:06:38;16.97;;;4.08;;
62894;SDS011;49204;44.916;37.998;2022-10-17T17:09:08;21.35;;;4.12;;